Ana Sayfa
METAR-TAF:

METAR-TAF

Havaalanları :

Singapur, Singapur

Enlem: 01-22N, Boylam: 103-55E, yükseklik: 18 m

Güncel hava durumu gözlemi

Rapor saat 15:00 UTC de 27 dakika önce yapıldı.
Rüzgar güney/güneydoğudan 5 kt
Sıcaklık 29°C
Nem 79%
Basınç 1011 hPa
Görüş mesafesi 10 km veya daha fazla
1800 ft yükseklikte az bulutlu
30000 ft yükseklikte parçalı çok bulutlu

METAR: WSAP 211500Z 15005KT 9999 FEW018 BKN300 29/25 Q1011

Saat: 23:27 (15:27 UTC)

Tahmin

Rapor saat 11:00 UTC de 4 saat ve 27 dakika önce yapıldı.
Ayın 21'si saat 12 UTC'den ayın 22'si saat 18 UTC'ye kadar geçerli Tahmin
Rüzgar güney/güneydoğudan 10 kt
Görüş mesafesi 10 km veya daha fazla
1500 ft yükseklikte az bulutlu
2000 ft yükseklikte parçalı bulutlu

TAF: WSAP 211100Z 2112/2218 16010KT 9999 FEW015 SCT020

4.000'den fazla havaalanı için hava durumu gözlemleri ve tahminleri (METAR ve TAF raporları).

Kullanılabilir istasyonlar harita üzerinde sarı ve kırmızı noktalarla gösterilir.

İstasyonun adını görmek için fareyi noktanın üzerinde gezdirin.

Sonrasında hava gözlem ve tahminlerini görmek için tıklayın.

Haritayı değiştirmek için: yaklaştırmak için siyah artı işaretli yeşil düğmeye ve uzaklaştırmak için de eksi işaretli düğmeye hızla tıklayın; bitişik haritalar için yeşil okları kullanın.


METAR-TAF: